^^
Datos históricos de la estación: Murcia-Puente Tocinos
Diario Informe para Julio 24, 2021 Unidades:  Métrico    Ingés   Ambas
Diario Semanal Mensual Anual
  Máxima: Mínima: Promedio:
Temperatura: 38.6 °C 25.1 °C 30 °C
Punto de rocio: 22.4 °C 12.4 °C 18.2 °C
Humedad: 78% 22.2% 52%
Velocidad viento: 23.3km/h 2.2km/h 8.6km/h
Racha viento: 37.8km/h - -
Viento- - SE
Presión: 1009.1 hPa 1004.7 hPa -
Precipitación: 0.0 mm    
 
 
Tabla de datos para Julio 24, 2021
Hora Temperatura Punto de rocio Presión Viento Velocidad viento Racha viento Humedad Intensidad lluvia(por hora) Nubes
00:04 27.8 °C 17.6 °C 1008.9 hPa North 7.6 km/h 11.9 km/h 53.8% 0.0 mm
00:09 27.7 °C 17.8 °C 1008.9 hPa NNE 7.6 km/h 12.2 km/h 54.7% 0.0 mm
00:14 27.7 °C 17.8 °C 1008.7 hPa NNE 7.6 km/h 13 km/h 55.1% 0.0 mm
00:19 27.6 °C 18 °C 1008.7 hPa NNE 7.2 km/h 10 km/h 56% 0.0 mm
00:24 27.5 °C 17.9 °C 1009.1 hPa NNO 6.9 km/h 9.7 km/h 56.1% 0.0 mm
00:29 27.4 °C 18.1 °C 1009.1 hPa NNO 5.9 km/h 7.6 km/h 57% 0.0 mm
00:34 27.4 °C 18.4 °C 1009.1 hPa NNO 5 km/h 9.5 km/h 57.9% 0.0 mm
00:39 27.3 °C 18.5 °C 1009.1 hPa NNE 4.8 km/h 9.7 km/h 58.4% 0.0 mm
00:44 27.3 °C 18.6 °C 1008.9 hPa NNE 4.7 km/h 9.5 km/h 59.1% 0.0 mm
00:49 27.2 °C 18.8 °C 1008.9 hPa NNE 5.2 km/h 9.7 km/h 60% 0.0 mm
00:54 27.1 °C 18.9 °C 1008.9 hPa NNE 5.8 km/h 11.9 km/h 60.6% 0.0 mm
00:59 27 °C 18.9 °C 1008.6 hPa North 6.5 km/h 11.3 km/h 61% 0.0 mm
01:04 26.9 °C 18.9 °C 1008.6 hPa NNE 6.9 km/h 9.3 km/h 61.6% 0.0 mm
01:09 26.8 °C 18.9 °C 1008.6 hPa NNE 5.8 km/h 9.7 km/h 62% 0.0 mm
01:14 26.7 °C 18.8 °C 1008.6 hPa NNE 5 km/h 9.3 km/h 62% 0.0 mm
01:19 26.7 °C 18.9 °C 1008.6 hPa NNO 5 km/h 9.7 km/h 62.6% 0.0 mm
01:24 26.6 °C 19 °C 1008.7 hPa NNE 5 km/h 8.4 km/h 63% 0.0 mm
01:29 26.6 °C 19 °C 1008.7 hPa NNE 4.8 km/h 7.4 km/h 63% 0.0 mm
01:34 26.6 °C 19 °C 1008.7 hPa North 4.7 km/h 6.4 km/h 62.9% 0.0 mm
01:39 26.6 °C 18.9 °C 1008.7 hPa North 3.9 km/h 6.4 km/h 62.6% 0.0 mm
01:44 26.6 °C 18.8 °C 1008.6 hPa North 3.2 km/h 6.4 km/h 62.1% 0.0 mm
01:49 26.6 °C 18.7 °C 1008.6 hPa North 3 km/h 5.8 km/h 62% 0.0 mm
01:54 26.6 °C 18.7 °C 1008.6 hPa NO 2.9 km/h 6.4 km/h 62% 0.0 mm
01:59 26.6 °C 18.7 °C 1008.4 hPa NO 3.1 km/h 4.8 km/h 62% 0.0 mm
02:04 26.6 °C 18.7 °C 1008.4 hPa NNO 3.2 km/h 7.4 km/h 62% 0.0 mm
02:09 26.6 °C 19 °C 1008.4 hPa NE 3.2 km/h 8 km/h 62.8% 0.0 mm
02:14 26.5 °C 19.1 °C 1008.1 hPa ENE 3.2 km/h 7.4 km/h 63.6% 0.0 mm
02:19 26.5 °C 19.4 °C 1008.1 hPa NNE 3.6 km/h 8 km/h 65.1% 0.0 mm
02:24 26.4 °C 19.7 °C 1008.1 hPa NNE 3.9 km/h 8 km/h 66.5% 0.0 mm
02:29 26.3 °C 19.9 °C 1008.0 hPa NE 3.9 km/h 7.4 km/h 67.9% 0.0 mm
02:34 26.3 °C 19.9 °C 1008.0 hPa NE 3.9 km/h 8 km/h 68% 0.0 mm
02:39 26.2 °C 20 °C 1008.0 hPa NNE 3.9 km/h 8 km/h 68.6% 0.0 mm
02:44 26.1 °C 20.2 °C 1007.8 hPa NNE 3.9 km/h 8 km/h 69.7% 0.0 mm
02:49 26.1 °C 20.3 °C 1007.8 hPa NNE 3.9 km/h 8 km/h 70.5% 0.0 mm
02:54 26 °C 20.5 °C 1007.8 hPa North 3.9 km/h 8 km/h 71.8% 0.0 mm
02:59 25.9 °C 20.2 °C 1007.7 hPa NO 3.9 km/h 8 km/h 71% 0.0 mm
03:04 25.8 °C 20.3 °C 1007.7 hPa NO 3.9 km/h 8 km/h 71.6% 0.0 mm
03:09 25.8 °C 20.5 °C 1007.7 hPa NNO 3.5 km/h 6.4 km/h 72.9% 0.0 mm
03:14 25.7 °C 20.7 °C 1007.5 hPa North 3.2 km/h 5.8 km/h 73.9% 0.0 mm
03:19 25.7 °C 20.9 °C 1007.5 hPa NNE 3.2 km/h 6.4 km/h 75% 0.0 mm
03:24 25.6 °C 20.8 °C 1007.5 hPa NNE 3.2 km/h 6.4 km/h 75% 0.0 mm
03:29 25.6 °C 20.8 °C 1007.4 hPa NNE 2.7 km/h 4.7 km/h 75% 0.0 mm
03:34 25.5 °C 20.8 °C 1007.4 hPa North 2.2 km/h 4.8 km/h 75.5% 0.0 mm
03:39 25.5 °C 21 °C 1007.4 hPa NO 2.2 km/h 4.8 km/h 76.2% 0.0 mm
03:44 25.5 °C 21.2 °C 1007.3 hPa NO 2.2 km/h 5 km/h 77% 0.0 mm
03:49 25.4 °C 21.1 °C 1007.3 hPa NO 2.6 km/h 5.8 km/h 77% 0.0 mm
03:54 25.4 °C 21.2 °C 1007.3 hPa NO 2.9 km/h 6.4 km/h 77.9% 0.0 mm
03:59 25.3 °C 21.2 °C 1007.2 hPa NO 2.9 km/h 5.6 km/h 78% 0.0 mm
04:04 25.3 °C 21 °C 1007.2 hPa NO 2.9 km/h 4.8 km/h 77.1% 0.0 mm
04:09 25.2 °C 20.9 °C 1007.2 hPa NO 2.9 km/h 3.7 km/h 77% 0.0 mm
04:14 25.2 °C 20.9 °C 1006.9 hPa NO 2.9 km/h 5.6 km/h 77% 0.0 mm
04:19 25.1 °C 20.8 °C 1006.9 hPa NO 2.5 km/h 4.8 km/h 77% 0.0 mm
04:24 25.2 °C 21 °C 1006.9 hPa NO 2.2 km/h 4.7 km/h 77.7% 0.0 mm
04:29 25.2 °C 21.1 °C 1006.9 hPa NO 2.2 km/h 4.8 km/h 78% 0.0 mm
04:34 25.2 °C 21 °C 1006.9 hPa NO 2.2 km/h 4.7 km/h 77.6% 0.0 mm
04:39 25.2 °C 20.9 °C 1006.9 hPa ENE 2.2 km/h 7.4 km/h 77% 0.0 mm
04:44 25.2 °C 20.8 °C 1006.9 hPa SSE 2.2 km/h 8 km/h 76.5% 0.0 mm
04:49 25.2 °C 20.9 °C 1006.9 hPa SSO 2.8 km/h 5.8 km/h 76.9% 0.0 mm
04:54 25.3 °C 20.8 °C 1006.9 hPa SO 3.2 km/h 6.4 km/h 76.3% 0.0 mm
04:59 25.3 °C 20.9 °C 1006.8 hPa SO 3 km/h 5.8 km/h 76.4% 0.0 mm
05:04 25.4 °C 21 °C 1006.8 hPa OSO 2.9 km/h 6.4 km/h 77% 0.0 mm
05:09 25.4 °C 20.7 °C 1007.0 hPa SSO 2.9 km/h 10 km/h 75.2% 0.0 mm
05:14 25.3 °C 19.5 °C 1007.0 hPa Sur 2.9 km/h 9.7 km/h 70% 0.0 mm
05:19 25.3 °C 18.9 °C 1007.0 hPa Sur 4.6 km/h 9.7 km/h 67.6% 0.0 mm
05:24 25.4 °C 18.3 °C 1007.0 hPa Sur 5.8 km/h 10 km/h 64.9% 0.0 mm
05:29 25.6 °C 18.1 °C 1006.8 hPa Sur 5.8 km/h 9.7 km/h 63.4% 0.0 mm
05:34 25.6 °C 18.1 °C 1006.8 hPa SO 5.8 km/h 9.7 km/h 63% 0.0 mm
05:39 25.7 °C 18.1 °C 1006.8 hPa SO 4.7 km/h 8 km/h 63% 0.0 mm
05:44 25.7 °C 18.1 °C 1006.7 hPa SO 3.9 km/h 8 km/h 63% 0.0 mm
05:49 25.7 °C 18.1 °C 1006.7 hPa SO 4.5 km/h 9.5 km/h 62.6% 0.0 mm
05:54 25.8 °C 17.9 °C 1006.7 hPa SO 5 km/h 9.7 km/h 62% 0.0 mm
05:59 25.8 °C 17.7 °C 1006.6 hPa SSE 5.8 km/h 11.1 km/h 61.1% 0.0 mm
06:04 25.8 °C 17.4 °C 1006.6 hPa Sur 6.5 km/h 11.3 km/h 60% 0.0 mm
06:09 25.7 °C 17.3 °C 1006.6 hPa SSO 7.5 km/h 11.1 km/h 60% 0.0 mm
06:14 25.7 °C 17.3 °C 1006.5 hPa SSO 8.4 km/h 11.3 km/h 60% 0.0 mm
06:19 25.7 °C 17.3 °C 1006.5 hPa SO 6.9 km/h 11.3 km/h 60% 0.0 mm
06:24 25.7 °C 17.3 °C 1006.5 hPa SSO 5.8 km/h 8 km/h 60% 0.0 mm
06:29 25.7 °C 17.5 °C 1006.5 hPa SO 5.3 km/h 8 km/h 60.7% 0.0 mm
06:34 25.7 °C 17.6 °C 1006.5 hPa OSO 5 km/h 8 km/h 61% 0.0 mm
06:39 25.7 °C 17.6 °C 1006.5 hPa OSO 4.3 km/h 8 km/h 61% 0.0 mm
06:44 25.8 °C 17.7 °C 1006.5 hPa SO 3.9 km/h 6.4 km/h 61% 0.0 mm
06:49 25.7 °C 17.7 °C 1006.5 hPa SO 3.9 km/h 8.4 km/h 61% 0.0 mm
06:54 25.8 °C 17.7 °C 1006.5 hPa SO 3.9 km/h 8 km/h 61% 0.0 mm
06:59 25.7 °C 17.6 °C 1006.5 hPa SSE 3.9 km/h 11.9 km/h 61% 0.0 mm
07:04 25.7 °C 17.6 °C 1006.5 hPa SSO 3.9 km/h 11.3 km/h 61% 0.0 mm
07:09 25.6 °C 17.5 °C 1006.5 hPa SSO 4.8 km/h 10 km/h 61% 0.0 mm
07:14 25.6 °C 17.5 °C 1006.5 hPa SO 5.8 km/h 11.9 km/h 60.9% 0.0 mm
07:19 25.6 °C 17.5 °C 1006.5 hPa OSO 5.8 km/h 11.3 km/h 61% 0.0 mm
07:24 25.6 °C 17.5 °C 1006.5 hPa SO 5.8 km/h 9.7 km/h 61% 0.0 mm
07:29 25.6 °C 17.5 °C 1006.5 hPa OSO 5.2 km/h 8 km/h 61% 0.0 mm
07:34 25.6 °C 17.4 °C 1006.5 hPa Oeste 4.7 km/h 8 km/h 60.4% 0.0 mm
07:39 25.6 °C 17.3 °C 1006.7 hPa Oeste 3.9 km/h 6.4 km/h 60.2% 0.0 mm
07:44 25.6 °C 17.3 °C 1006.7 hPa Oeste 3.2 km/h 4.7 km/h 60% 0.0 mm
07:49 25.6 °C 17.3 °C 1006.7 hPa Oeste 3 km/h 7.4 km/h 60% 0.0 mm
07:54 25.6 °C 17.2 °C 1006.8 hPa Oeste 2.9 km/h 8 km/h 59.5% 0.0 mm
07:59 25.7 °C 17.1 °C 1006.8 hPa Oeste 2.9 km/h 6.4 km/h 59% 0.0 mm
08:04 25.7 °C 17.1 °C 1006.8 hPa Oeste 2.9 km/h 6.4 km/h 59% 0.0 mm
08:09 25.8 °C 17.2 °C 1006.8 hPa Oeste 2.5 km/h 4.7 km/h 59% 0.0 mm
08:14 25.9 °C 17.3 °C 1006.8 hPa Oeste 2.2 km/h 5.8 km/h 59% 0.0 mm
08:19 26.1 °C 17.8 °C 1006.8 hPa SE 2.8 km/h 6.4 km/h 60.6% 0.0 mm
08:24 26.1 °C 18 °C 1006.8 hPa ESE 3.2 km/h 8 km/h 61% 0.0 mm
08:29 26.2 °C 18.1 °C 1006.8 hPa ESE 3.6 km/h 8.4 km/h 61.2% 0.0 mm
08:34 26.1 °C 18.1 °C 1006.8 hPa SSE 3.9 km/h 8.4 km/h 61.4% 0.0 mm
08:39 26.1 °C 18 °C 1007.0 hPa SSE 4.3 km/h 8 km/h 61% 0.0 mm
08:44 26.1 °C 18.1 °C 1007.0 hPa SSE 4.7 km/h 8 km/h 61.4% 0.0 mm
08:49 26.2 °C 18 °C 1007.0 hPa SSE 3.6 km/h 4.8 km/h 60.8% 0.0 mm
08:54 26.3 °C 18.1 °C 1007.0 hPa Sur 2.9 km/h 4.7 km/h 60.5% 0.0 mm
08:59 26.6 °C 18.3 °C 1006.9 hPa NO 2.5 km/h 5.8 km/h 60.5% 0.0 mm
09:04 26.8 °C 18.4 °C 1006.9 hPa NO 2.2 km/h 6.4 km/h 60% 0.0 mm
09:09 27 °C 18.5 °C 1006.9 hPa NO 2.2 km/h 3.9 km/h 59.7% 0.0 mm
09:14 27.3 °C 18.3 °C 1006.9 hPa ONO 2.2 km/h 6.4 km/h 57.9% 0.0 mm
09:19 27.3 °C 17.9 °C 1006.9 hPa Oeste 2.6 km/h 8 km/h 56.6% 0.0 mm
09:24 27.3 °C 17.8 °C 1007.2 hPa ONO 2.9 km/h 8 km/h 56% 0.0 mm
09:29 27.4 °C 17.8 °C 1007.2 hPa ONO 3.1 km/h 8 km/h 55.7% 0.0 mm
09:34 27.7 °C 17.7 °C 1007.2 hPa ONO 3.2 km/h 9.5 km/h 54.9% 0.0 mm
09:39 27.8 °C 17.3 °C 1007.2 hPa Oeste 4.1 km/h 9.7 km/h 53% 0.0 mm
09:44 27.9 °C 16.9 °C 1007.1 hPa OSO 4.7 km/h 9.7 km/h 51.1% 0.0 mm
09:49 28.1 °C 16.7 °C 1007.1 hPa ONO 4.8 km/h 8 km/h 50% 0.0 mm
09:54 28.3 °C 16.9 °C 1007.1 hPa Oeste 5 km/h 8.4 km/h 50% 0.0 mm
09:59 28.6 °C 17 °C 1006.9 hPa OSO 4.8 km/h 10 km/h 49.7% 0.0 mm
10:04 28.8 °C 16.9 °C 1006.9 hPa SO 4.6 km/h 9.7 km/h 48.6% 0.0 mm
10:09 28.9 °C 16.6 °C 1007.0 hPa SSO 4.8 km/h 9.7 km/h 47.3% 0.0 mm
10:14 29.1 °C 16.7 °C 1007.0 hPa SSO 5 km/h 11.1 km/h 47.3% 0.0 mm
10:19 29.2 °C 17 °C 1007.0 hPa SSO 6 km/h 9.3 km/h 47.9% 0.0 mm
10:24 29.3 °C 16.9 °C 1007.0 hPa Sur 6.9 km/h 11.1 km/h 47% 0.0 mm
10:29 29.6 °C 16.7 °C 1007.0 hPa SSO 6.7 km/h 11.3 km/h 45.6% 0.0 mm
10:34 29.8 °C 16.8 °C 1007.0 hPa Sur 6.5 km/h 11.3 km/h 45.6% 0.0 mm
10:39 30.1 °C 17 °C 1007.0 hPa Sur 6.5 km/h 11.1 km/h 45.3% 0.0 mm
10:44 30.4 °C 15.8 °C 1006.9 hPa SSO 6.5 km/h 11.3 km/h 41.4% 0.0 mm
10:49 30.7 °C 15.1 °C 1006.9 hPa SSO 6.1 km/h 11.3 km/h 39% 0.0 mm
10:54 31 °C 15.2 °C 1006.9 hPa SSE 5.8 km/h 9.7 km/h 38.4% 0.0 mm
10:59 31.3 °C 15.2 °C 1006.9 hPa Sur 5.3 km/h 10.3 km/h 37.7% 0.0 mm
11:04 31.6 °C 15 °C 1006.9 hPa Sur 5 km/h 11.3 km/h 36.7% 0.0 mm
11:09 31.7 °C 14.8 °C 1006.9 hPa SSO 6 km/h 11.3 km/h 36.1% 0.0 mm
11:14 31.8 °C 14.9 °C 1006.9 hPa SSO 6.9 km/h 11.3 km/h 36% 0.0 mm
11:19 32.1 °C 14.6 °C 1006.9 hPa Sur 5.7 km/h 7.4 km/h 34.7% 0.0 mm
11:24 32.4 °C 14.6 °C 1006.9 hPa Este 4.7 km/h 9.5 km/h 34.1% 0.0 mm
11:29 32.8 °C 14.3 °C 1006.9 hPa ONO 4.2 km/h 9.7 km/h 32.9% 0.0 mm
11:34 33.1 °C 14.3 °C 1006.9 hPa North 3.9 km/h 9.7 km/h 32.2% 0.0 mm
11:39 33.3 °C 14.2 °C 1007.0 hPa Este 3.9 km/h 9.7 km/h 31.6% 0.0 mm
11:44 33.4 °C 14 °C 1007.0 hPa SE 3.9 km/h 9.7 km/h 30.9% 0.0 mm
11:49 33.6 °C 13.6 °C 1007.0 hPa SE 4.3 km/h 11.1 km/h 30% 0.0 mm
11:54 33.7 °C 13.7 °C 1007.0 hPa ESE 4.7 km/h 13 km/h 30% 0.0 mm
11:59 33.8 °C 13.6 °C 1006.9 hPa ESE 5.9 km/h 12.9 km/h 29.6% 0.0 mm
12:04 33.8 °C 13.2 °C 1006.9 hPa ESE 6.9 km/h 11.3 km/h 28.9% 0.0 mm
12:09 34 °C 13.6 °C 1006.9 hPa ESE 6.6 km/h 11.3 km/h 29.3% 0.0 mm
12:14 34.3 °C 13.3 °C 1006.9 hPa ESE 6.5 km/h 11.3 km/h 28.3% 0.0 mm
12:19 34.5 °C 13.2 °C 1006.9 hPa ESE 5 km/h 10 km/h 27.7% 0.0 mm
12:24 34.7 °C 13 °C 1006.9 hPa SE 3.9 km/h 10 km/h 27% 0.0 mm
12:29 34.8 °C 13.1 °C 1006.8 hPa ESE 5.4 km/h 11.9 km/h 27.1% 0.0 mm
12:34 34.9 °C 13.3 °C 1006.8 hPa Este 6.4 km/h 13.7 km/h 27.3% 0.0 mm
12:39 35 °C 13.2 °C 1006.8 hPa ESE 6.7 km/h 14.5 km/h 27.1% 0.0 mm
12:44 35.2 °C 12.9 °C 1006.5 hPa SE 6.9 km/h 11.3 km/h 26.1% 0.0 mm
12:49 35.4 °C 12.9 °C 1006.5 hPa Este 6.6 km/h 9.7 km/h 25.9% 0.0 mm
12:54 35.7 °C 12.8 °C 1006.6 hPa SSO 6.4 km/h 8.4 km/h 25.2% 0.0 mm
12:59 36.1 °C 12.8 °C 1006.6 hPa SO 4.9 km/h 8 km/h 24.7% 0.0 mm
13:04 36.4 °C 13 °C 1006.6 hPa ENE 3.9 km/h 8.4 km/h 24.6% 0.0 mm
13:09 36.6 °C 12.7 °C 1006.6 hPa ENE 4.3 km/h 11.1 km/h 23.9% 0.0 mm
13:14 36.6 °C 12.7 °C 1006.3 hPa Este 4.7 km/h 11.9 km/h 23.9% 0.0 mm
13:19 36.6 °C 12.7 °C 1006.3 hPa North 5.6 km/h 11.9 km/h 23.8% 0.0 mm
13:24 36.8 °C 12.6 °C 1006.3 hPa North 6.5 km/h 11.3 km/h 23.5% 0.0 mm
13:29 37 °C 12.8 °C 1006.1 hPa NO 4.7 km/h 8.4 km/h 23.5% 0.0 mm
13:34 37.3 °C 12.8 °C 1006.1 hPa North 3.2 km/h 13 km/h 23.3% 0.0 mm
13:39 37.3 °C 12.4 °C 1006.1 hPa NNE 5.2 km/h 14.8 km/h 22.7% 0.0 mm
13:44 37.3 °C 12.5 °C 1005.8 hPa North 6.5 km/h 14.5 km/h 22.8% 0.0 mm
13:49 37.3 °C 12.4 °C 1005.8 hPa NE 6.7 km/h 18.5 km/h 22.6% 0.0 mm
13:54 37.3 °C 12.4 °C 1005.8 hPa NNE 6.9 km/h 19.3 km/h 22.6% 0.0 mm
13:59 37.4 °C 12.8 °C 1005.8 hPa NNE 7.3 km/h 15.6 km/h 23% 0.0 mm
14:04 37.6 °C 12.6 °C 1005.8 hPa North 7.6 km/h 17.2 km/h 22.5% 0.0 mm
14:09 37.7 °C 12.4 °C 1005.8 hPa NNE 8.7 km/h 17.7 km/h 22.2% 0.0 mm
14:14 37.8 °C 12.8 °C 1005.7 hPa North 9.5 km/h 14.8 km/h 22.5% 0.0 mm
14:19 37.9 °C 13 °C 1005.7 hPa NE 9 km/h 18.5 km/h 22.8% 0.0 mm
14:24 37.9 °C 13 °C 1005.7 hPa NNE 8.7 km/h 19.3 km/h 22.7% 0.0 mm
14:29 38.2 °C 13.3 °C 1005.5 hPa NNE 8.5 km/h 16.7 km/h 22.9% 0.0 mm
14:34 38.3 °C 13.5 °C 1005.5 hPa NNE 8.4 km/h 17.2 km/h 23% 0.0 mm
14:39 38.3 °C 13.5 °C 1005.5 hPa NNE 8.4 km/h 18.5 km/h 23% 0.0 mm
14:44 38.4 °C 13.6 °C 1005.4 hPa NNE 8.4 km/h 20.4 km/h 23% 0.0 mm
14:49 38.6 °C 14.3 °C 1005.4 hPa NNE 9.3 km/h 22.2 km/h 23.9% 0.0 mm
14:54 38.5 °C 15.5 °C 1005.4 hPa NNE 10 km/h 28.2 km/h 25.8% 0.0 mm
14:59 38.2 °C 17.5 °C 1005.2 hPa NE 12.5 km/h 30.6 km/h 29.9% 0.0 mm
15:04 37.7 °C 18.8 °C 1005.2 hPa NNE 14 km/h 37 km/h 33.2% 0.0 mm
15:09 37.3 °C 19.2 °C 1005.2 hPa NNE 16.6 km/h 37 km/h 35% 0.0 mm
15:14 37.2 °C 19.4 °C 1005.2 hPa NNE 18.4 km/h 28.2 km/h 35.5% 0.0 mm
15:19 37.2 °C 19.6 °C 1005.2 hPa NNE 17.2 km/h 33.5 km/h 36% 0.0 mm
15:24 36.8 °C 19.2 °C 1005.2 hPa NNE 16.4 km/h 33.8 km/h 35.9% 0.0 mm
15:29 36.7 °C 18.9 °C 1005.2 hPa NE 18.4 km/h 35.2 km/h 35.2% 0.0 mm
15:34 36.6 °C 18.7 °C 1005.2 hPa NNE 19.8 km/h 33.3 km/h 35% 0.0 mm
15:39 36.6 °C 18.6 °C 1005.2 hPa NNE 19.8 km/h 33.8 km/h 35% 0.0 mm
15:44 36.4 °C 18.2 °C 1005.2 hPa NE 19.8 km/h 35.2 km/h 34.3% 0.0 mm
15:49 36.6 °C 18.1 °C 1005.2 hPa NE 20 km/h 35.4 km/h 33.9% 0.0 mm
15:54 36.6 °C 18 °C 1005.2 hPa NE 20.1 km/h 32.2 km/h 33.8% 0.0 mm
15:59 36.5 °C 18 °C 1005.2 hPa NE 19.9 km/h 31.7 km/h 33.8% 0.0 mm
16:04 36.4 °C 17.6 °C 1005.2 hPa NE 19.8 km/h 33.3 km/h 33.1% 0.0 mm
16:09 36.6 °C 17.8 °C 1005.2 hPa NE 19.3 km/h 33.8 km/h 33.3% 0.0 mm
16:14 36.4 °C 17.9 °C 1005.1 hPa NE 19 km/h 31.7 km/h 33.8% 0.0 mm
16:19 36.3 °C 18 °C 1005.1 hPa NE 19 km/h 33.3 km/h 34.1% 0.0 mm
16:24 36.2 °C 18.1 °C 1005.1 hPa NNE 19 km/h 35.9 km/h 34.5% 0.0 mm
16:29 36.1 °C 17.3 °C 1005.1 hPa NE 20.5 km/h 36.2 km/h 33.1% 0.0 mm
16:34 35.8 °C 17.9 °C 1005.1 hPa NNE 21.7 km/h 37 km/h 34.9% 0.0 mm
16:39 35.8 °C 17.6 °C 1005.1 hPa NNE 20.8 km/h 33.8 km/h 34.4% 0.0 mm
16:44 35.6 °C 17.3 °C 1005.0 hPa NNE 20.1 km/h 34.3 km/h 34% 0.0 mm
16:49 35.6 °C 16.9 °C 1005.0 hPa NNE 20.6 km/h 34.6 km/h 33.1% 0.0 mm
16:54 35.4 °C 16.7 °C 1005.0 hPa NNE 20.9 km/h 35.4 km/h 32.9% 0.0 mm
16:59 35.5 °C 16.5 °C 1004.9 hPa NNE 20.9 km/h 35.4 km/h 32.6% 0.0 mm
17:04 35.4 °C 16.4 °C 1004.9 hPa NNE 20.9 km/h 33.8 km/h 32.4% 0.0 mm
17:09 35.3 °C 16.4 °C 1004.9 hPa NE 20.4 km/h 37.8 km/h 32.6% 0.0 mm
17:14 35.2 °C 16.3 °C 1004.8 hPa NE 20.1 km/h 35.2 km/h 32.6% 0.0 mm
17:19 35.2 °C 16.9 °C 1004.8 hPa NE 19.9 km/h 27.4 km/h 33.9% 0.0 mm
17:24 35.1 °C 16.6 °C 1005.0 hPa NE 19.8 km/h 37 km/h 33.4% 0.0 mm
17:29 34.8 °C 16.8 °C 1005.0 hPa NNE 19.8 km/h 37 km/h 34.4% 0.0 mm
17:34 34.6 °C 16.9 °C 1005.0 hPa NE 19.8 km/h 37 km/h 34.9% 0.0 mm
17:39 34.5 °C 17.3 °C 1005.0 hPa NNE 21.7 km/h 33.3 km/h 36% 0.0 mm
17:44 34.6 °C 17.6 °C 1005.0 hPa NE 23.3 km/h 33.8 km/h 36.5% 0.0 mm
17:49 34.7 °C 18.1 °C 1005.0 hPa NE 20.5 km/h 33.8 km/h 37.6% 0.0 mm
17:54 34.6 °C 18.4 °C 1005.1 hPa NNE 18.4 km/h 31.5 km/h 38.4% 0.0 mm
17:59 34.5 °C 18.2 °C 1005.1 hPa NE 19.2 km/h 32.2 km/h 38% 0.0 mm
18:04 34.4 °C 18.1 °C 1005.1 hPa NE 19.8 km/h 31.5 km/h 38% 0.0 mm
18:09 34.3 °C 18.1 °C 1005.1 hPa NE 19.3 km/h 32.2 km/h 38.4% 0.0 mm
18:14 34.3 °C 18.2 °C 1005.0 hPa NE 19 km/h 29.8 km/h 38.6% 0.0 mm
18:19 34.2 °C 18.9 °C 1005.0 hPa NE 18.4 km/h 30.6 km/h 40.7% 0.0 mm
18:24 34.2 °C 18.3 °C 1005.0 hPa NE 18 km/h 27.4 km/h 39.3% 0.0 mm
18:29 34.1 °C 18.5 °C 1005.0 hPa NE 16.9 km/h 33.3 km/h 40% 0.0 mm
18:34 33.8 °C 18.7 °C 1005.0 hPa NNE 16.1 km/h 29.6 km/h 40.9% 0.0 mm
18:39 33.8 °C 18.8 °C 1005.0 hPa NE 16.8 km/h 27.4 km/h 41% 0.0 mm
18:44 33.9 °C 19 °C 1004.8 hPa NE 17.2 km/h 28.2 km/h 41.5% 0.0 mm
18:49 33.7 °C 19 °C 1004.8 hPa NE 16.4 km/h 27.8 km/h 42% 0.0 mm
18:54 33.6 °C 19 °C 1004.8 hPa NNE 15.6 km/h 25.7 km/h 42.3% 0.0 mm
18:59 33.3 °C 19.5 °C 1004.7 hPa NNE 15.6 km/h 26.2 km/h 44.2% 0.0 mm
19:04 33.2 °C 19.7 °C 1004.7 hPa NE 15.6 km/h 27.8 km/h 45.1% 0.0 mm
19:09 33 °C 19.9 °C 1004.8 hPa NE 15.6 km/h 27.4 km/h 46.1% 0.0 mm
19:14 32.7 °C 20.1 °C 1004.8 hPa NE 15.6 km/h 31.7 km/h 47.4% 0.0 mm
19:19 32.4 °C 20.3 °C 1004.8 hPa NE 16.6 km/h 32.2 km/h 48.9% 0.0 mm
19:24 32.1 °C 20.4 °C 1004.8 hPa NE 17.2 km/h 29.6 km/h 50.2% 0.0 mm
19:29 31.9 °C 20.5 °C 1004.7 hPa NE 18.7 km/h 29 km/h 51% 0.0 mm
19:34 31.8 °C 20.5 °C 1004.7 hPa NE 19.8 km/h 24.1 km/h 51.3% 0.0 mm
19:39 31.7 °C 20.6 °C 1004.7 hPa NE 17.5 km/h 26.2 km/h 52.1% 0.0 mm
19:44 31.4 °C 20.8 °C 1004.7 hPa NE 15.6 km/h 26.2 km/h 53.4% 0.0 mm
19:49 31.2 °C 20.8 °C 1004.7 hPa NE 16.5 km/h 31.7 km/h 54.2% 0.0 mm
19:54 31 °C 20.9 °C 1004.8 hPa NE 17.2 km/h 33.3 km/h 55% 0.0 mm
19:59 30.8 °C 20.9 °C 1004.8 hPa NE 17.2 km/h 33.8 km/h 55.5% 0.0 mm
20:04 30.7 °C 21.1 °C 1004.8 hPa NE 17.2 km/h 29.6 km/h 56.6% 0.0 mm
20:09 30.5 °C 21 °C 1005.0 hPa NE 17.7 km/h 29.6 km/h 57.1% 0.0 mm
20:14 30.4 °C 21.2 °C 1005.0 hPa NE 18 km/h 29.8 km/h 58% 0.0 mm
20:19 30.2 °C 21.1 °C 1005.0 hPa NE 17.1 km/h 29.6 km/h 58% 0.0 mm
20:24 30.1 °C 20.7 °C 1005.0 hPa NE 16.4 km/h 29 km/h 57.1% 0.0 mm
20:29 30.1 °C 20.7 °C 1005.0 hPa NE 15.5 km/h 25.6 km/h 57% 0.0 mm
20:34 30 °C 20.5 °C 1005.0 hPa NE 14.8 km/h 25.9 km/h 57% 0.0 mm
20:39 29.9 °C 20.4 °C 1005.2 hPa NE 14.8 km/h 25.7 km/h 57% 0.0 mm
20:44 29.8 °C 20.4 °C 1005.2 hPa NE 14.8 km/h 25.9 km/h 57% 0.0 mm
20:49 29.6 °C 20.4 °C 1005.2 hPa NE 15.3 km/h 25.7 km/h 57.9% 0.0 mm
20:54 29.5 °C 20.5 °C 1005.4 hPa NE 15.6 km/h 22.2 km/h 58.7% 0.0 mm
20:59 29.3 °C 20.7 °C 1005.4 hPa NE 14 km/h 22.5 km/h 59.6% 0.0 mm
21:04 29.2 °C 20.8 °C 1005.4 hPa NE 13 km/h 22.5 km/h 60.6% 0.0 mm
21:09 29.2 °C 20.9 °C 1005.5 hPa NE 13.4 km/h 22.5 km/h 61.1% 0.0 mm
21:14 29.1 °C 21 °C 1005.5 hPa NNE 13.7 km/h 20.9 km/h 62% 0.0 mm
21:19 28.9 °C 21 °C 1005.5 hPa NE 12.8 km/h 20.9 km/h 62.4% 0.0 mm
21:24 28.8 °C 20.9 °C 1005.5 hPa NE 12.2 km/h 22.2 km/h 62.6% 0.0 mm
21:29 28.7 °C 20.9 °C 1005.5 hPa NE 12.2 km/h 22.5 km/h 63% 0.0 mm
21:34 28.6 °C 21 °C 1005.5 hPa NE 12.2 km/h 16.7 km/h 63.5% 0.0 mm
21:39 28.5 °C 21.1 °C 1005.8 hPa NNE 11.1 km/h 18.5 km/h 64.3% 0.0 mm
21:44 28.3 °C 21.2 °C 1005.8 hPa NNE 10.3 km/h 19.3 km/h 65.3% 0.0 mm
21:49 28.2 °C 21.4 °C 1005.8 hPa NE 10.3 km/h 19.3 km/h 66.5% 0.0 mm
21:54 28.1 °C 21.4 °C 1005.9 hPa NE 10.3 km/h 16.1 km/h 67% 0.0 mm
21:59 28.1 °C 21.6 °C 1005.9 hPa NNE 9.3 km/h 16.1 km/h 68% 0.0 mm
22:04 28 °C 21.8 °C 1005.9 hPa NE 8.7 km/h 16.7 km/h 69.1% 0.0 mm
22:09 27.8 °C 22 °C 1006.0 hPa NE 8 km/h 16.1 km/h 70.5% 0.0 mm
22:14 27.7 °C 22 °C 1006.0 hPa NE 7.6 km/h 16.7 km/h 71% 0.0 mm
22:19 27.6 °C 22 °C 1006.0 hPa NE 8.6 km/h 15.6 km/h 71.4% 0.0 mm
22:24 27.5 °C 22 °C 1006.3 hPa NNE 9.5 km/h 13 km/h 71.9% 0.0 mm
22:29 27.4 °C 21.9 °C 1006.3 hPa North 8.9 km/h 13 km/h 71.9% 0.0 mm
22:34 27.3 °C 21.9 °C 1006.3 hPa NNE 8.4 km/h 14 km/h 72% 0.0 mm
22:39 27.3 °C 21.8 °C 1006.7 hPa NE 7.9 km/h 14.8 km/h 72% 0.0 mm
22:44 27.3 °C 21.8 °C 1006.7 hPa NNE 7.6 km/h 14.8 km/h 72% 0.0 mm
22:49 27.3 °C 21.8 °C 1006.7 hPa NE 8.6 km/h 15.6 km/h 72% 0.0 mm
22:54 27.2 °C 21.7 °C 1007.0 hPa NNE 9.5 km/h 16.1 km/h 72% 0.0 mm
22:59 27.2 °C 21.8 °C 1007.0 hPa NNE 8.3 km/h 11.9 km/h 72.5% 0.0 mm
23:04 27.2 °C 22 °C 1007.0 hPa North 7.6 km/h 11.3 km/h 73.3% 0.0 mm
23:09 27.2 °C 22.1 °C 1007.1 hPa NNE 6.9 km/h 11.3 km/h 73.9% 0.0 mm
23:14 27.1 °C 22.1 °C 1007.1 hPa North 6.4 km/h 11.1 km/h 74.1% 0.0 mm
23:19 27 °C 22.2 °C 1007.1 hPa NNE 6.4 km/h 11.1 km/h 74.9% 0.0 mm
23:24 26.9 °C 22.1 °C 1007.3 hPa NNO 6.4 km/h 9.5 km/h 75% 0.0 mm
23:29 26.9 °C 22.2 °C 1007.3 hPa NNO 6.1 km/h 10 km/h 75.3% 0.0 mm
23:34 26.9 °C 22.3 °C 1007.3 hPa NNO 5.8 km/h 8.4 km/h 76% 0.0 mm
23:39 26.8 °C 22.2 °C 1007.5 hPa NNO 5.1 km/h 8 km/h 76% 0.0 mm
23:44 26.8 °C 22.3 °C 1007.5 hPa NO 4.7 km/h 9.5 km/h 76.4% 0.0 mm
23:49 26.8 °C 22.4 °C 1007.5 hPa NO 4.8 km/h 9.7 km/h 77% 0.0 mm
23:54 26.7 °C 22.4 °C 1007.5 hPa North 5 km/h 9.3 km/h 77% 0.0 mm
23:59 26.7 °C 22.3 °C 1007.5 hPa NE 4.3 km/h 9.7 km/h 77% 0.0 mm
Murcia-Puente Tocinos, España
Compliments of Weather Underground - 3 mb

La estación de MeteoMurcia.com, publica sus datos en los siguientes proyectos:

Weather Underground PWS IMURCIAP2 Meteoclimatic www.awekas.at

W3Counter
Web Analytics